Fragaria, Washington
Current Conditions -  °F | °C
As of 6:15 AM on Thursday 23 Oct 2014 (Local Time) from KPWT Reporting Station
Broken Clouds Broken Clouds  
Wind Chill: 11°   Ceiling: 5500
Heat Index: 11°   Visibility: 10mi
Dew Point:   Wind: 7mph
Humidity: 88%   Direction: 180°S
Pressure: 29.73"   Gusts: 17mph
Location:  47.4285°N, 122.573°W
Report Text: KPWT 231315Z AUTO 18006G15KT 10SM BKN055 11/09 A2973 RMK AO1
Loading
Personal Weather Stations






























Interactive Weather Map
Tropical Storm Tracking
New forecast layout! Learn more

10-Day Weather Forecast

Advertisements
Track Severe Weather on mobile